Terminal Aerodrome Forecast
Issued by NWS

Home | Current Version | Previous Version | Text Only | Print | Product List | Glossary On
Versions: 1 2 3 4 5 6 7 8 9 10 11 12 13 14 15 16
288
FTUS41 KCAR 031127
TAFBHB
TAF
KBHB 031127Z 0312/0412 34006KT P6SM OVC006
     FM031400 VRB03KT P6SM BKN008
     FM031600 VRB03KT P6SM BKN015
     FM032000 00000KT P6SM SCT020 BKN050
     FM040400 04004KT 6SM BR BKN003
     FM041000 05006KT 2SM BR SCT007=

USA.gov is the U.S. government's official web portal to all federal, state and local government web resources and services.